createdAt,value
2017-01-14T00:00:28.884Z,0
2017-01-14T00:01:30.101Z,0
2017-01-14T00:02:29.636Z,0
2017-01-14T00:03:30.271Z,0
2017-01-14T00:04:29.191Z,0
2017-01-14T00:05:31.017Z,0
2017-01-14T00:06:29.892Z,0
2017-01-14T00:07:30.108Z,0
2017-01-14T00:08:30.438Z,0
2017-01-14T00:09:30.962Z,0
2017-01-14T00:10:30.271Z,0
2017-01-14T00:11:30.567Z,0
2017-01-14T00:12:30.582Z,0
2017-01-14T00:13:30.527Z,0
2017-01-14T00:14:30.952Z,0
2017-01-14T00:15:30.148Z,0
2017-01-14T00:16:29.966Z,0
2017-01-14T00:17:30.362Z,0
2017-01-14T00:18:29.118Z,0
2017-01-14T00:19:30.075Z,0
2017-01-14T00:20:30.447Z,0
2017-01-14T00:21:30.226Z,0
2017-01-14T00:22:30.404Z,0
2017-01-14T00:23:30.614Z,0
2017-01-14T00:24:30.864Z,0
2017-01-14T00:25:29.695Z,0
2017-01-14T00:26:31.411Z,0
2017-01-14T00:27:28.941Z,0
2017-01-14T00:28:30.949Z,0
2017-01-14T00:29:30.872Z,0
2017-01-14T00:30:30.530Z,0
2017-01-14T00:31:30.045Z,0
2017-01-14T00:32:30.517Z,0
2017-01-14T00:33:30.541Z,0
2017-01-14T00:34:31.324Z,0
2017-01-14T00:35:30.614Z,0
2017-01-14T00:36:30.150Z,0
2017-01-14T00:37:30.110Z,0
2017-01-14T00:38:30.708Z,0
2017-01-14T00:39:30.102Z,0
2017-01-14T00:40:29.957Z,0
2017-01-14T00:41:30.911Z,0
2017-01-14T00:42:30.035Z,0
2017-01-14T00:43:30.884Z,0
2017-01-14T00:44:30.578Z,0
2017-01-14T00:45:30.676Z,0
2017-01-14T00:46:29.690Z,0
2017-01-14T00:47:30.724Z,0
2017-01-14T00:48:30.606Z,0
2017-01-14T00:49:30.363Z,0
2017-01-14T00:50:30.700Z,0
2017-01-14T00:51:30.602Z,0
2017-01-14T00:52:31.343Z,0
2017-01-14T00:53:33.951Z,0
2017-01-14T00:54:30.998Z,0
2017-01-14T00:55:30.609Z,0
2017-01-14T00:56:31.287Z,0
2017-01-14T00:57:29.979Z,0
2017-01-14T00:58:31.144Z,0
2017-01-14T00:59:29.375Z,0
2017-01-14T01:00:30.227Z,0
2017-01-14T01:01:30.356Z,0
2017-01-14T01:02:31.322Z,0
2017-01-14T01:03:30.489Z,0
2017-01-14T01:04:30.575Z,0
2017-01-14T01:05:30.211Z,0
2017-01-14T01:06:32.277Z,0
2017-01-14T01:07:30.504Z,0
2017-01-14T01:08:31.223Z,0
2017-01-14T01:09:30.446Z,0
2017-01-14T01:10:30.706Z,0
2017-01-14T01:11:31.110Z,0
2017-01-14T01:12:30.959Z,0
2017-01-14T01:13:30.157Z,0
2017-01-14T01:14:31.385Z,0
2017-01-14T01:15:31.599Z,0
2017-01-14T01:16:30.638Z,0
2017-01-14T01:17:31.079Z,0
2017-01-14T01:18:29.966Z,0
2017-01-14T01:19:30.547Z,0
2017-01-14T01:20:30.608Z,0
2017-01-14T01:21:30.218Z,0
2017-01-14T01:22:31.242Z,0
2017-01-14T01:23:31.493Z,0
2017-01-14T01:24:31.047Z,0
2017-01-14T01:25:31.597Z,0
2017-01-14T01:26:31.532Z,0
2017-01-14T01:27:30.235Z,0
2017-01-14T01:28:30.562Z,0
2017-01-14T01:29:30.668Z,0
2017-01-14T01:30:31.104Z,0
2017-01-14T01:31:30.830Z,0
2017-01-14T01:32:30.688Z,0
2017-01-14T01:33:30.630Z,0
2017-01-14T01:34:31.451Z,0
2017-01-14T01:35:30.373Z,0
2017-01-14T01:36:30.535Z,0
2017-01-14T01:37:30.647Z,0
2017-01-14T01:38:32.438Z,0
2017-01-14T01:39:30.885Z,0
2017-01-14T01:40:30.942Z,0
2017-01-14T01:41:30.483Z,0
2017-01-14T01:42:31.264Z,0
2017-01-14T01:43:30.352Z,0
2017-01-14T01:44:30.310Z,0
2017-01-14T01:45:30.130Z,0
2017-01-14T01:46:29.953Z,0
2017-01-14T01:47:30.865Z,0
2017-01-14T01:48:31.392Z,0
2017-01-14T01:49:31.121Z,0
2017-01-14T01:50:31.312Z,0
2017-01-14T01:51:30.282Z,0
2017-01-14T01:52:31.190Z,0
2017-01-14T01:53:30.865Z,0
2017-01-14T01:54:31.053Z,0
2017-01-14T01:55:31.069Z,0
2017-01-14T01:56:30.817Z,0
2017-01-14T01:57:31.382Z,0
2017-01-14T01:58:29.993Z,0
2017-01-14T01:59:30.873Z,0
2017-01-14T02:00:31.034Z,0
2017-01-14T02:01:31.745Z,0
2017-01-14T02:02:31.457Z,0
2017-01-14T02:03:32.721Z,0
2017-01-14T02:04:30.995Z,0
2017-01-14T02:05:31.627Z,0
2017-01-14T02:06:30.802Z,0
2017-01-14T02:07:30.999Z,0
2017-01-14T02:08:30.974Z,0
2017-01-14T02:09:30.931Z,0
2017-01-14T02:10:31.930Z,0
2017-01-14T02:11:31.610Z,0
2017-01-14T02:12:30.845Z,0
2017-01-14T02:13:31.867Z,0
2017-01-14T02:14:31.908Z,0
2017-01-14T02:15:31.131Z,0
2017-01-14T02:16:32.198Z,0
2017-01-14T02:17:31.036Z,0
2017-01-14T02:18:31.410Z,0
2017-01-14T02:19:31.819Z,0
2017-01-14T02:20:30.842Z,0
2017-01-14T02:21:31.054Z,0
2017-01-14T02:22:31.439Z,0
2017-01-14T02:23:31.173Z,0
2017-01-14T02:24:30.981Z,0
2017-01-14T02:25:30.821Z,0
2017-01-14T02:26:31.804Z,0
2017-01-14T02:27:30.387Z,0
2017-01-14T02:28:31.208Z,0
2017-01-14T02:29:31.409Z,0
2017-01-14T02:30:31.335Z,0
2017-01-14T02:31:30.555Z,0
2017-01-14T02:32:30.822Z,0
2017-01-14T02:33:31.709Z,0
2017-01-14T02:34:32.205Z,0
2017-01-14T02:35:32.494Z,0
2017-01-14T02:36:30.715Z,0
2017-01-14T02:37:31.606Z,0
2017-01-14T02:38:31.296Z,0
2017-01-14T02:39:31.891Z,0
2017-01-14T02:40:31.594Z,0
2017-01-14T02:41:31.364Z,0
2017-01-14T02:42:31.343Z,0
2017-01-14T02:43:31.091Z,0
2017-01-14T02:44:31.370Z,0
2017-01-14T02:45:31.619Z,0
2017-01-14T02:46:31.306Z,0
2017-01-14T02:47:32.065Z,0
2017-01-14T02:48:31.709Z,0
2017-01-14T02:49:31.266Z,0
2017-01-14T02:50:31.608Z,0
2017-01-14T02:51:31.612Z,0
2017-01-14T02:52:32.738Z,0
2017-01-14T02:53:31.025Z,0
2017-01-14T02:54:31.830Z,0
2017-01-14T02:55:32.790Z,0
2017-01-14T02:56:31.564Z,0
2017-01-14T02:57:32.700Z,0
2017-01-14T02:58:31.402Z,0
2017-01-14T02:59:32.151Z,0
2017-01-14T03:00:31.470Z,0
2017-01-14T03:01:31.397Z,0
2017-01-14T03:02:31.743Z,0
2017-01-14T03:03:32.665Z,0
2017-01-14T03:04:31.488Z,0
2017-01-14T03:05:31.368Z,0
2017-01-14T03:06:32.531Z,0
2017-01-14T03:07:32.505Z,0
2017-01-14T03:08:31.514Z,0
2017-01-14T03:09:31.572Z,0
2017-01-14T03:10:31.189Z,0
2017-01-14T03:11:31.932Z,0
2017-01-14T03:12:32.298Z,0
2017-01-14T03:13:31.450Z,0
2017-01-14T03:14:31.271Z,0
2017-01-14T03:15:32.634Z,0
2017-01-14T03:16:31.368Z,0
2017-01-14T03:17:31.590Z,0
2017-01-14T03:18:31.437Z,0
2017-01-14T03:19:33.403Z,0
2017-01-14T03:20:31.833Z,0
2017-01-14T03:21:31.598Z,0
2017-01-14T03:22:31.353Z,0
2017-01-14T03:23:31.614Z,0
2017-01-14T03:24:32.289Z,0
2017-01-14T03:25:31.997Z,0
2017-01-14T03:26:32.088Z,0
2017-01-14T03:27:33.374Z,0
2017-01-14T03:28:32.980Z,0
2017-01-14T03:29:31.239Z,0
2017-01-14T03:30:32.270Z,0
2017-01-14T03:31:32.881Z,0
2017-01-14T03:32:31.100Z,0
2017-01-14T03:33:33.147Z,0
2017-01-14T03:34:31.852Z,0
2017-01-14T03:35:31.732Z,0
2017-01-14T03:36:32.529Z,0
2017-01-14T03:37:31.437Z,0
2017-01-14T03:38:31.167Z,0
2017-01-14T03:39:32.981Z,0
2017-01-14T03:40:32.852Z,0
2017-01-14T03:41:31.820Z,0
2017-01-14T03:42:33.116Z,0
2017-01-14T03:43:31.750Z,0
2017-01-14T03:44:31.772Z,0
2017-01-14T03:45:32.578Z,0
2017-01-14T03:46:32.252Z,0
2017-01-14T03:47:31.528Z,0
2017-01-14T03:48:31.745Z,0
2017-01-14T03:49:32.095Z,0
2017-01-14T03:50:32.887Z,0
2017-01-14T03:51:32.687Z,0
2017-01-14T03:52:32.635Z,0
2017-01-14T03:53:33.024Z,0
2017-01-14T03:54:32.438Z,0
2017-01-14T03:55:32.441Z,0
2017-01-14T03:56:33.587Z,0
2017-01-14T03:57:31.624Z,0
2017-01-14T03:58:32.947Z,0
2017-01-14T03:59:32.779Z,0
2017-01-14T04:00:31.533Z,0
2017-01-14T04:01:33.110Z,0
2017-01-14T04:02:31.877Z,0
2017-01-14T04:03:32.640Z,0
2017-01-14T04:04:32.735Z,0
2017-01-14T04:05:33.336Z,0
2017-01-14T04:06:31.490Z,0
2017-01-14T04:07:33.545Z,0
2017-01-14T04:08:32.678Z,0
2017-01-14T04:09:32.345Z,0
2017-01-14T04:10:32.610Z,0
2017-01-14T04:11:34.092Z,0
2017-01-14T04:12:32.875Z,0
2017-01-14T04:13:31.837Z,0
2017-01-14T04:14:32.812Z,0
2017-01-14T04:15:32.477Z,0
2017-01-14T04:16:32.244Z,0
2017-01-14T04:17:33.037Z,0
2017-01-14T04:18:32.381Z,0
2017-01-14T04:19:31.753Z,0
2017-01-14T04:20:32.502Z,0
2017-01-14T04:21:32.711Z,0
2017-01-14T04:22:32.913Z,0
2017-01-14T04:23:33.731Z,0
2017-01-14T04:24:32.566Z,0
2017-01-14T04:25:33.086Z,0
2017-01-14T04:26:32.668Z,0
2017-01-14T04:27:31.718Z,0
2017-01-14T04:28:31.990Z,0
2017-01-14T04:29:32.687Z,0
2017-01-14T04:30:34.469Z,0
2017-01-14T04:31:32.715Z,0
2017-01-14T04:32:32.575Z,0
2017-01-14T04:33:32.706Z,0
2017-01-14T04:34:33.448Z,0
2017-01-14T04:35:32.909Z,0
2017-01-14T04:36:32.385Z,0
2017-01-14T04:37:33.126Z,0
2017-01-14T04:38:34.056Z,0
2017-01-14T04:39:34.097Z,0
2017-01-14T04:40:32.009Z,0
2017-01-14T04:41:32.449Z,0
2017-01-14T04:42:33.928Z,0
2017-01-14T04:43:32.327Z,0
2017-01-14T04:44:32.647Z,0
2017-01-14T04:45:32.972Z,0
2017-01-14T04:46:32.955Z,0
2017-01-14T04:47:32.713Z,0
2017-01-14T04:48:33.420Z,0
2017-01-14T04:49:33.478Z,0
2017-01-14T04:50:33.953Z,0
2017-01-14T04:51:33.105Z,0
2017-01-14T04:52:32.832Z,0
2017-01-14T04:53:33.360Z,0
2017-01-14T04:54:33.674Z,0
2017-01-14T04:55:33.212Z,0
2017-01-14T04:56:32.821Z,0
2017-01-14T04:57:33.305Z,0
2017-01-14T04:58:32.982Z,0
2017-01-14T04:59:32.641Z,0
2017-01-14T05:00:33.727Z,0
2017-01-14T05:01:33.497Z,0
2017-01-14T05:02:34.588Z,0
2017-01-14T05:03:33.338Z,0
2017-01-14T05:04:33.846Z,0
2017-01-14T05:05:34.127Z,0
2017-01-14T05:06:33.559Z,0
2017-01-14T05:07:33.311Z,0
2017-01-14T05:08:33.702Z,0
2017-01-14T05:09:33.330Z,0
2017-01-14T05:10:33.457Z,0
2017-01-14T05:11:33.664Z,0
2017-01-14T05:12:33.326Z,0
2017-01-14T05:13:34.365Z,0
2017-01-14T05:14:33.251Z,0
2017-01-14T05:15:32.767Z,0
2017-01-14T05:16:34.052Z,0
2017-01-14T05:17:34.181Z,0
2017-01-14T05:18:34.795Z,0
2017-01-14T05:19:33.763Z,0
2017-01-14T05:20:34.086Z,0
2017-01-14T05:21:32.878Z,0
2017-01-14T05:22:33.459Z,0
2017-01-14T05:23:35.100Z,0
2017-01-14T05:24:33.921Z,0
2017-01-14T05:25:33.644Z,0
2017-01-14T05:26:33.426Z,0
2017-01-14T05:27:33.447Z,0
2017-01-14T05:28:34.620Z,0
2017-01-14T05:29:32.754Z,0
2017-01-14T05:30:34.226Z,0
2017-01-14T05:31:33.021Z,0
2017-01-14T05:32:33.560Z,0
2017-01-14T05:33:34.510Z,0
2017-01-14T05:34:34.018Z,0
2017-01-14T05:35:34.348Z,0
2017-01-14T05:36:34.394Z,0
2017-01-14T05:37:35.104Z,0
2017-01-14T05:38:35.904Z,0
2017-01-14T05:39:34.083Z,0
2017-01-14T05:40:35.476Z,0
2017-01-14T05:41:35.914Z,0
2017-01-14T05:42:34.430Z,0
2017-01-14T05:43:35.234Z,0
2017-01-14T05:44:35.500Z,0
2017-01-14T05:45:35.875Z,0
2017-01-14T05:46:35.450Z,0
2017-01-14T05:47:36.731Z,0
2017-01-14T05:48:33.667Z,0
2017-01-14T05:49:36.769Z,0
2017-01-14T05:50:35.370Z,0
2017-01-14T05:51:36.397Z,0
2017-01-14T05:52:36.671Z,0
2017-01-14T05:53:35.810Z,0
2017-01-14T05:54:34.592Z,0
2017-01-14T05:55:34.308Z,0
2017-01-14T05:56:34.374Z,0
2017-01-14T05:57:34.295Z,0
2017-01-14T05:58:35.741Z,0
2017-01-14T05:59:36.057Z,0
2017-01-14T06:00:35.718Z,0
2017-01-14T06:01:37.897Z,0
2017-01-14T06:02:36.098Z,0
2017-01-14T06:03:35.713Z,0
2017-01-14T06:04:35.047Z,0
2017-01-14T06:05:35.476Z,0
2017-01-14T06:06:35.264Z,0
2017-01-14T06:07:37.301Z,0
2017-01-14T06:08:36.986Z,0
2017-01-14T06:09:36.820Z,0
2017-01-14T06:10:36.424Z,0
2017-01-14T06:11:35.782Z,0
2017-01-14T06:12:37.190Z,0
2017-01-14T06:13:37.098Z,0
2017-01-14T06:14:35.702Z,0
2017-01-14T06:15:35.423Z,0
2017-01-14T06:16:35.552Z,0
2017-01-14T06:17:38.131Z,0
2017-01-14T06:18:37.417Z,0
2017-01-14T06:19:37.194Z,0
2017-01-14T06:20:36.211Z,0
2017-01-14T06:21:36.640Z,0
2017-01-14T06:22:36.554Z,0
2017-01-14T06:23:37.500Z,0
2017-01-14T06:24:36.848Z,0
2017-01-14T06:25:35.452Z,0
2017-01-14T06:26:36.007Z,0
2017-01-14T06:27:36.419Z,0
2017-01-14T06:28:35.495Z,0
2017-01-14T06:29:34.519Z,0
2017-01-14T06:30:36.121Z,0
2017-01-14T06:31:36.099Z,0
2017-01-14T06:32:35.197Z,0
2017-01-14T06:33:37.261Z,0
2017-01-14T06:34:36.320Z,0
2017-01-14T06:35:35.180Z,0
2017-01-14T06:36:35.013Z,0
2017-01-14T06:37:35.818Z,0
2017-01-14T06:38:39.532Z,0
2017-01-14T06:39:36.522Z,0
2017-01-14T06:40:38.360Z,0
2017-01-14T06:41:36.415Z,0
2017-01-14T06:42:36.844Z,0
2017-01-14T06:43:37.241Z,0
2017-01-14T06:44:34.986Z,0
2017-01-14T06:45:37.707Z,0
2017-01-14T06:46:37.204Z,0
2017-01-14T06:47:35.804Z,0
2017-01-14T06:48:36.223Z,0
2017-01-14T06:49:35.965Z,0
2017-01-14T06:50:35.782Z,0
2017-01-14T06:51:35.030Z,0
2017-01-14T06:52:36.184Z,0
2017-01-14T06:53:36.315Z,0
2017-01-14T06:54:36.437Z,0
2017-01-14T06:55:34.485Z,0
2017-01-14T06:56:38.096Z,0
2017-01-14T06:57:35.281Z,0
2017-01-14T06:58:35.790Z,0
2017-01-14T06:59:36.039Z,0
2017-01-14T07:00:36.697Z,0
2017-01-14T07:01:36.028Z,0
2017-01-14T07:02:36.618Z,0
2017-01-14T07:03:37.272Z,0
2017-01-14T07:04:36.630Z,0
2017-01-14T07:05:35.381Z,0
2017-01-14T07:06:36.042Z,0
2017-01-14T07:07:37.764Z,0
2017-01-14T07:08:38.348Z,0
2017-01-14T07:09:36.147Z,0
2017-01-14T07:11:47.124Z,0
2017-01-14T07:12:51.976Z,0
2017-01-14T07:13:47.481Z,0
2017-01-14T07:14:36.436Z,0
2017-01-14T07:15:34.835Z,0
2017-01-14T07:16:35.342Z,0
2017-01-14T07:19:35.022Z,5
2017-01-14T07:20:35.094Z,5
2017-01-14T07:21:35.545Z,5
2017-01-14T07:22:35.527Z,5
2017-01-14T07:23:35.753Z,5
2017-01-14T07:24:35.045Z,5
2017-01-14T07:25:35.338Z,5
2017-01-14T07:26:36.030Z,5
2017-01-14T07:27:35.606Z,5
2017-01-14T07:28:35.793Z,5
2017-01-14T07:29:37.390Z,5
2017-01-14T07:30:36.280Z,5
2017-01-14T07:31:36.618Z,5
2017-01-14T07:32:36.244Z,10
2017-01-14T07:33:34.899Z,10
2017-01-14T07:34:35.658Z,10
2017-01-14T07:35:35.682Z,10
2017-01-14T07:36:35.017Z,10
2017-01-14T07:37:36.458Z,10
2017-01-14T07:38:35.667Z,15
2017-01-14T07:39:35.256Z,15
2017-01-14T07:40:36.428Z,15
2017-01-14T07:41:44.695Z,20
2017-01-14T07:42:38.741Z,20
2017-01-14T07:43:48.506Z,15
2017-01-14T07:44:41.525Z,15
2017-01-14T07:45:38.737Z,15
2017-01-14T07:46:41.270Z,15
2017-01-14T07:47:39.155Z,15
2017-01-14T07:48:40.403Z,20
2017-01-14T07:49:41.262Z,20
2017-01-14T07:50:45.707Z,20
2017-01-14T07:51:48.163Z,30
2017-01-14T07:52:44.304Z,30
2017-01-14T07:53:40.868Z,30
2017-01-14T07:54:41.303Z,35
2017-01-14T07:55:40.980Z,35
2017-01-14T07:56:40.218Z,40
2017-01-14T07:57:40.373Z,45
2017-01-14T07:59:44.946Z,50
2017-01-14T08:00:36.695Z,50
2017-01-14T08:01:45.046Z,55
2017-01-14T08:02:43.502Z,60
2017-01-14T08:03:40.653Z,65
2017-01-14T08:04:45.294Z,70
2017-01-14T08:05:46.167Z,75
2017-01-14T08:06:39.556Z,80
2017-01-14T08:07:41.104Z,85
2017-01-14T08:08:39.222Z,85
2017-01-14T08:09:41.520Z,85
2017-01-14T08:11:42.674Z,85
2017-01-14T08:12:41.454Z,95
2017-01-14T08:13:49.060Z,100
2017-01-14T08:14:42.275Z,105
2017-01-14T08:15:41.166Z,110
2017-01-14T08:16:47.785Z,120
2017-01-14T08:17:43.455Z,120
2017-01-14T08:18:44.908Z,125
2017-01-14T08:19:43.164Z,125
2017-01-14T08:20:48.382Z,125
2017-01-14T08:21:44.204Z,120
2017-01-14T08:22:43.596Z,120
2017-01-14T08:23:39.504Z,110
2017-01-14T08:24:42.870Z,120
2017-01-14T08:25:43.198Z,125
2017-01-14T08:27:44.005Z,125
2017-01-14T08:28:40.436Z,130
2017-01-14T08:29:34.788Z,130
2017-01-14T08:30:35.001Z,130
2017-01-14T08:31:35.002Z,135
2017-01-14T08:32:35.384Z,135
2017-01-14T08:33:35.470Z,135
2017-01-14T08:34:37.082Z,135
2017-01-14T08:35:37.751Z,145
2017-01-14T08:36:36.143Z,150
2017-01-14T08:37:35.406Z,165
2017-01-14T08:38:35.180Z,175
2017-01-14T08:39:36.011Z,185
2017-01-14T08:40:36.591Z,190
2017-01-14T08:41:35.524Z,185
2017-01-14T08:42:36.234Z,175
2017-01-14T08:43:35.792Z,170
2017-01-14T08:44:37.546Z,170
2017-01-14T08:45:35.301Z,165
2017-01-14T08:46:35.163Z,160
2017-01-14T08:47:37.034Z,165
2017-01-14T08:48:36.023Z,165
2017-01-14T08:49:36.374Z,165
2017-01-14T08:50:36.325Z,165
2017-01-14T08:51:36.225Z,165
2017-01-14T08:52:37.071Z,170
2017-01-14T08:53:36.008Z,175
2017-01-14T08:54:36.846Z,180
2017-01-14T08:55:35.852Z,175
2017-01-14T08:56:37.835Z,180
2017-01-14T08:57:36.049Z,190
2017-01-14T08:58:35.415Z,200
2017-01-14T08:59:35.713Z,215
2017-01-14T09:00:36.762Z,230
2017-01-14T09:01:36.202Z,240
2017-01-14T09:02:35.840Z,250
2017-01-14T09:03:35.456Z,245
2017-01-14T09:04:37.009Z,230
2017-01-14T09:05:36.342Z,230
2017-01-14T09:06:35.866Z,225
2017-01-14T09:07:36.489Z,220
2017-01-14T09:08:36.086Z,215
2017-01-14T09:09:36.411Z,215
2017-01-14T09:10:36.686Z,210
2017-01-14T09:11:37.153Z,205
2017-01-14T09:12:36.806Z,215
2017-01-14T09:13:35.515Z,215
2017-01-14T09:14:35.720Z,200
2017-01-14T09:15:36.222Z,195
2017-01-14T09:16:36.563Z,190
2017-01-14T09:17:35.787Z,205
2017-01-14T09:18:36.517Z,225
2017-01-14T09:19:35.887Z,260
2017-01-14T09:20:35.854Z,300
2017-01-14T09:21:36.543Z,355
2017-01-14T09:22:36.305Z,375
2017-01-14T09:23:36.448Z,260
2017-01-14T09:24:36.025Z,270
2017-01-14T09:25:36.857Z,280
2017-01-14T09:26:36.704Z,315
2017-01-14T09:27:36.248Z,290
2017-01-14T09:28:36.409Z,320
2017-01-14T09:29:36.591Z,315
2017-01-14T09:30:36.304Z,320
2017-01-14T09:31:36.595Z,325
2017-01-14T09:32:37.259Z,320
2017-01-14T09:33:37.628Z,300
2017-01-14T09:34:37.748Z,285
2017-01-14T09:35:35.569Z,295
2017-01-14T09:36:35.771Z,305
2017-01-14T09:37:37.501Z,300
2017-01-14T09:38:35.837Z,285
2017-01-14T09:39:36.340Z,285
2017-01-14T09:40:35.981Z,295
2017-01-14T09:41:37.896Z,290
2017-01-14T09:42:35.826Z,285
2017-01-14T09:43:36.363Z,280
2017-01-14T09:44:38.007Z,270
2017-01-14T09:45:37.774Z,270
2017-01-14T09:46:37.067Z,265
2017-01-14T09:47:36.030Z,290
2017-01-14T09:48:36.543Z,330
2017-01-14T09:49:37.484Z,355
2017-01-14T09:50:36.240Z,350
2017-01-14T09:51:36.600Z,390
2017-01-14T09:52:36.428Z,385
2017-01-14T09:53:39.398Z,375
2017-01-14T09:54:36.511Z,340
2017-01-14T09:55:37.091Z,285
2017-01-14T09:56:36.536Z,260
2017-01-14T09:57:37.818Z,250
2017-01-14T09:58:37.636Z,270
2017-01-14T09:59:37.310Z,290
2017-01-14T10:00:37.260Z,280
2017-01-14T10:01:36.721Z,290
2017-01-14T10:02:37.107Z,295
2017-01-14T10:03:37.921Z,315
2017-01-14T10:04:36.133Z,290
2017-01-14T10:05:36.826Z,300
2017-01-14T10:06:37.449Z,285
2017-01-14T10:07:37.455Z,290
2017-01-14T10:08:37.787Z,300
2017-01-14T10:09:37.386Z,290
2017-01-14T10:10:37.401Z,285
2017-01-14T10:11:37.599Z,285
2017-01-14T10:12:38.060Z,330
2017-01-14T10:13:37.286Z,330
2017-01-14T10:14:36.631Z,395
2017-01-14T10:15:37.553Z,320
2017-01-14T10:16:37.926Z,390
2017-01-14T10:17:38.182Z,360
2017-01-14T10:18:36.163Z,355
2017-01-14T10:19:36.945Z,350
2017-01-14T10:20:37.764Z,360
2017-01-14T10:21:37.290Z,355
2017-01-14T10:22:37.680Z,355
2017-01-14T10:23:36.305Z,360
2017-01-14T10:24:37.347Z,360
2017-01-14T10:25:36.403Z,370
2017-01-14T10:26:37.158Z,375
2017-01-14T10:27:37.687Z,395
2017-01-14T10:28:37.849Z,395
2017-01-14T10:29:36.489Z,390
2017-01-14T10:30:38.663Z,405
2017-01-14T10:31:37.496Z,425
2017-01-14T10:32:38.533Z,460
2017-01-14T10:33:37.872Z,485
2017-01-14T10:34:37.395Z,510
2017-01-14T10:35:37.089Z,450
2017-01-14T10:36:37.140Z,430
2017-01-14T10:37:37.349Z,450
2017-01-14T10:38:36.125Z,485
2017-01-14T10:39:37.571Z,510
2017-01-14T10:40:38.297Z,485
2017-01-14T10:41:37.254Z,490
2017-01-14T10:42:37.994Z,435
2017-01-14T10:43:38.448Z,375
2017-01-14T10:44:37.550Z,420
2017-01-14T10:45:37.500Z,490
2017-01-14T10:46:38.207Z,455
2017-01-14T10:47:37.765Z,450
2017-01-14T10:48:37.272Z,500
2017-01-14T10:49:37.413Z,585
2017-01-14T10:50:37.453Z,620
2017-01-14T10:51:38.365Z,480
2017-01-14T10:52:38.105Z,465
2017-01-14T10:53:37.277Z,540
2017-01-14T10:54:38.315Z,520
2017-01-14T10:55:37.664Z,520
2017-01-14T10:56:38.828Z,570
2017-01-14T10:57:37.073Z,570
2017-01-14T10:58:37.676Z,585
2017-01-14T10:59:37.541Z,580
2017-01-14T11:00:38.645Z,540
2017-01-14T11:01:38.500Z,500
2017-01-14T11:02:38.381Z,545
2017-01-14T11:03:38.744Z,565
2017-01-14T11:04:38.371Z,555
2017-01-14T11:05:39.583Z,620
2017-01-14T11:06:38.366Z,660
2017-01-14T11:07:37.366Z,580
2017-01-14T11:08:38.328Z,640
2017-01-14T11:09:38.635Z,635
2017-01-14T11:10:37.912Z,635
2017-01-14T11:11:38.981Z,660
2017-01-14T11:12:37.322Z,680
2017-01-14T11:13:38.119Z,640
2017-01-14T11:14:37.905Z,610
2017-01-14T11:15:37.892Z,615
2017-01-14T11:16:37.970Z,680
2017-01-14T11:17:38.972Z,705
2017-01-14T11:18:37.729Z,775
2017-01-14T11:19:38.382Z,720
2017-01-14T11:20:37.468Z,685
2017-01-14T11:21:37.670Z,705
2017-01-14T11:22:38.879Z,675
2017-01-14T11:23:37.992Z,690
2017-01-14T11:24:38.221Z,615
2017-01-14T11:25:38.861Z,590
2017-01-14T11:26:39.424Z,590
2017-01-14T11:27:38.161Z,610
2017-01-14T11:28:38.322Z,610
2017-01-14T11:29:38.143Z,620
2017-01-14T11:30:37.506Z,655
2017-01-14T11:31:39.183Z,625
2017-01-14T11:32:38.008Z,650
2017-01-14T11:33:37.936Z,640
2017-01-14T11:34:38.130Z,600
2017-01-14T11:35:37.818Z,515
2017-01-14T11:36:38.353Z,540
2017-01-14T11:37:38.682Z,580
2017-01-14T11:38:39.009Z,600
2017-01-14T11:39:39.195Z,595
2017-01-14T11:40:38.208Z,585
2017-01-14T11:41:37.813Z,565
2017-01-14T11:42:38.743Z,540
2017-01-14T11:43:38.611Z,555
2017-01-14T11:44:37.596Z,540
2017-01-14T11:45:37.601Z,525
2017-01-14T11:46:39.460Z,470
2017-01-14T11:47:38.674Z,440
2017-01-14T11:48:37.946Z,440
2017-01-14T11:49:37.965Z,475
2017-01-14T11:50:38.135Z,485
2017-01-14T11:51:39.190Z,480
2017-01-14T11:52:39.347Z,465
2017-01-14T11:53:38.701Z,470
2017-01-14T11:54:38.571Z,470
2017-01-14T11:55:39.289Z,450
2017-01-14T11:56:39.069Z,395
2017-01-14T11:57:38.169Z,350
2017-01-14T11:58:40.668Z,320
2017-01-14T11:59:38.365Z,330
2017-01-14T12:00:38.455Z,345
2017-01-14T12:01:38.064Z,345
2017-01-14T12:02:38.243Z,370
2017-01-14T12:03:38.689Z,405
2017-01-14T12:04:38.930Z,405
2017-01-14T12:05:38.912Z,375
2017-01-14T12:06:38.451Z,365
2017-01-14T12:07:38.436Z,350
2017-01-14T12:08:38.923Z,360
2017-01-14T12:09:38.968Z,385
2017-01-14T12:10:38.798Z,370
2017-01-14T12:11:38.732Z,345
2017-01-14T12:12:39.563Z,320
2017-01-14T12:13:39.162Z,305
2017-01-14T12:14:38.308Z,310
2017-01-14T12:15:39.998Z,335
2017-01-14T12:16:38.389Z,370
2017-01-14T12:17:38.656Z,395
2017-01-14T12:18:38.894Z,425
2017-01-14T12:19:39.613Z,440
2017-01-14T12:20:38.542Z,400
2017-01-14T12:21:38.847Z,330
2017-01-14T12:22:38.091Z,315
2017-01-14T12:23:39.469Z,325
2017-01-14T12:24:39.224Z,330
2017-01-14T12:25:39.792Z,325
2017-01-14T12:26:38.207Z,315
2017-01-14T12:27:38.291Z,335
2017-01-14T12:28:39.676Z,350
2017-01-14T12:29:40.047Z,340
2017-01-14T12:30:38.890Z,355
2017-01-14T12:31:39.479Z,355
2017-01-14T12:32:39.984Z,355
2017-01-14T12:33:40.825Z,355
2017-01-14T12:34:39.294Z,365
2017-01-14T12:35:40.093Z,380
2017-01-14T12:36:39.070Z,410
2017-01-14T12:37:40.663Z,405
2017-01-14T12:38:39.855Z,420
2017-01-14T12:39:38.895Z,390
2017-01-14T12:40:38.561Z,375
2017-01-14T12:41:39.439Z,375
2017-01-14T12:42:38.158Z,400
2017-01-14T12:43:39.486Z,395
2017-01-14T12:44:39.124Z,400
2017-01-14T12:45:38.625Z,400
2017-01-14T12:46:40.243Z,390
2017-01-14T12:47:39.079Z,385
2017-01-14T12:48:38.903Z,405
2017-01-14T12:49:40.612Z,405
2017-01-14T12:50:39.196Z,390
2017-01-14T12:51:40.820Z,340
2017-01-14T12:52:40.085Z,335
2017-01-14T12:53:39.451Z,345
2017-01-14T12:54:38.724Z,340
2017-01-14T12:55:39.877Z,310
2017-01-14T12:56:39.991Z,300
2017-01-14T12:57:39.399Z,285
2017-01-14T12:58:39.221Z,265
2017-01-14T12:59:39.665Z,245
2017-01-14T13:00:40.033Z,250
2017-01-14T13:01:40.260Z,285
2017-01-14T13:02:39.109Z,300
2017-01-14T13:03:38.688Z,295
2017-01-14T13:04:39.899Z,275
2017-01-14T13:05:39.926Z,235
2017-01-14T13:06:40.341Z,195
2017-01-14T13:07:39.082Z,170
2017-01-14T13:08:38.979Z,190
2017-01-14T13:09:40.209Z,180
2017-01-14T13:10:39.659Z,150
2017-01-14T13:11:39.452Z,155
2017-01-14T13:12:38.723Z,175
2017-01-14T13:13:40.941Z,175
2017-01-14T13:14:39.952Z,160
2017-01-14T13:15:39.295Z,145
2017-01-14T13:16:39.075Z,140
2017-01-14T13:17:39.861Z,125
2017-01-14T13:18:39.910Z,130
2017-01-14T13:19:40.069Z,135
2017-01-14T13:20:40.753Z,125
2017-01-14T13:21:40.316Z,95
2017-01-14T13:22:41.426Z,70
2017-01-14T13:23:40.344Z,60
2017-01-14T13:24:40.761Z,50
2017-01-14T13:25:39.800Z,50
2017-01-14T13:26:39.705Z,70
2017-01-14T13:27:40.770Z,125
2017-01-14T13:28:39.978Z,190
2017-01-14T13:29:40.471Z,220
2017-01-14T13:30:40.067Z,165
2017-01-14T13:31:39.779Z,105
2017-01-14T13:32:39.461Z,90
2017-01-14T13:33:39.175Z,90
2017-01-14T13:34:39.857Z,80
2017-01-14T13:35:39.554Z,105
2017-01-14T13:36:40.455Z,160
2017-01-14T13:37:39.882Z,235
2017-01-14T13:38:39.322Z,260
2017-01-14T13:39:39.178Z,280
2017-01-14T13:40:40.638Z,285
2017-01-14T13:41:40.596Z,260
2017-01-14T13:42:40.321Z,225
2017-01-14T13:43:40.686Z,195
2017-01-14T13:44:40.350Z,190
2017-01-14T13:45:40.721Z,185
2017-01-14T13:46:40.071Z,180
2017-01-14T13:47:40.744Z,175
2017-01-14T13:48:39.738Z,175
2017-01-14T13:49:41.619Z,175
2017-01-14T13:50:40.879Z,180
2017-01-14T13:51:40.299Z,165
2017-01-14T13:52:40.032Z,145
2017-01-14T13:53:39.705Z,145
2017-01-14T13:54:40.610Z,145
2017-01-14T13:55:41.606Z,145
2017-01-14T13:56:40.019Z,150
2017-01-14T13:57:40.322Z,150
2017-01-14T13:58:40.428Z,155
2017-01-14T13:59:40.762Z,165
2017-01-14T14:00:41.522Z,165
2017-01-14T14:01:40.969Z,150
2017-01-14T14:02:40.604Z,145
2017-01-14T14:03:41.123Z,150
2017-01-14T14:04:40.367Z,150
2017-01-14T14:05:40.868Z,150
2017-01-14T14:06:41.331Z,140
2017-01-14T14:07:42.769Z,145
2017-01-14T14:08:40.725Z,155
2017-01-14T14:09:40.742Z,175
2017-01-14T14:10:39.864Z,190
2017-01-14T14:11:40.400Z,200
2017-01-14T14:12:40.508Z,195
2017-01-14T14:13:40.866Z,195
2017-01-14T14:14:42.095Z,195
2017-01-14T14:15:41.506Z,205
2017-01-14T14:16:40.581Z,210
2017-01-14T14:17:40.934Z,215
2017-01-14T14:18:40.333Z,215
2017-01-14T14:19:40.996Z,220
2017-01-14T14:20:41.307Z,220
2017-01-14T14:21:41.783Z,215
2017-01-14T14:22:40.732Z,210
2017-01-14T14:23:40.955Z,200
2017-01-14T14:24:40.740Z,200